createdAt,value
2018-10-16T00:01:03.691Z,91.34
2018-10-16T00:03:32.253Z,91.60
2018-10-16T00:06:00.808Z,90.20
2018-10-16T00:08:29.680Z,90.60
2018-10-16T00:10:58.229Z,91.28
2018-10-16T00:13:26.766Z,91.45
2018-10-16T00:15:55.464Z,90.79
2018-10-16T00:18:24.069Z,90.60
2018-10-16T00:20:52.597Z,90.36
2018-10-16T00:23:21.452Z,90.34
2018-10-16T00:25:50.021Z,90.52
2018-10-16T00:28:18.614Z,90.83
2018-10-16T00:30:47.332Z,90.42
2018-10-16T00:33:15.985Z,90.55
2018-10-16T00:35:44.613Z,90.77
2018-10-16T00:38:13.457Z,91.35
2018-10-16T00:40:42.045Z,90.98
2018-10-16T00:43:10.708Z,90.83
2018-10-16T00:45:39.361Z,90.98
2018-10-16T00:48:08.056Z,91.44
2018-10-16T00:50:36.734Z,91.82
2018-10-16T00:53:05.350Z,90.76
2018-10-16T00:55:33.876Z,90.96
2018-10-16T00:58:02.492Z,90.33
2018-10-16T01:00:31.136Z,91.18
2018-10-16T01:02:59.832Z,92.50
2018-10-16T01:05:28.529Z,92.87
2018-10-16T01:07:57.329Z,93.84
2018-10-16T01:10:25.853Z,93.27
2018-10-16T01:12:54.512Z,92.86
2018-10-16T01:15:23.173Z,92.50
2018-10-16T01:17:51.777Z,92.06
2018-10-16T01:20:20.593Z,92.12
2018-10-16T01:22:49.423Z,92.51
2018-10-16T01:25:17.966Z,94.43
2018-10-16T01:27:46.552Z,93.31
2018-10-16T01:30:15.177Z,93.25
2018-10-16T01:32:43.836Z,94.10
2018-10-16T01:35:13.025Z,93.06
2018-10-16T01:37:42.200Z,93.66
2018-10-16T01:40:11.708Z,92.77
2018-10-16T01:42:40.297Z,93.08
2018-10-16T01:45:09.735Z,91.96
2018-10-16T01:47:38.344Z,91.89
2018-10-16T01:50:07.386Z,91.06
2018-10-16T01:52:36.253Z,90.86
2018-10-16T01:55:04.917Z,91.45
2018-10-16T01:57:33.489Z,91.53
2018-10-16T02:00:02.149Z,91.98
2018-10-16T02:02:30.748Z,91.86
2018-10-16T02:04:59.398Z,92.05
2018-10-16T02:07:28.149Z,92.81
2018-10-16T02:09:56.696Z,93.78
2018-10-16T02:12:25.257Z,92.86
2018-10-16T02:14:54.069Z,92.54
2018-10-16T02:17:22.614Z,93.05
2018-10-16T02:19:51.177Z,93.33
2018-10-16T02:22:19.909Z,92.44
2018-10-16T02:24:48.469Z,92.44
2018-10-16T02:27:17.128Z,92.13
2018-10-16T02:29:45.828Z,91.85
2018-10-16T02:32:14.456Z,91.27
2018-10-16T02:34:43.076Z,92.12
2018-10-16T02:37:11.819Z,91.94
2018-10-16T02:39:40.820Z,93.02
2018-10-16T02:42:09.774Z,94.29
2018-10-16T02:44:38.364Z,93.57
2018-10-16T02:47:07.182Z,93.50
2018-10-16T02:49:35.835Z,93.30
2018-10-16T02:52:04.723Z,93.44
2018-10-16T02:54:33.257Z,92.64
2018-10-16T02:57:01.918Z,92.85
2018-10-16T02:59:30.707Z,93.05
2018-10-16T03:01:59.433Z,91.90
2018-10-16T03:04:27.957Z,92.38
2018-10-16T03:06:56.700Z,92.31
2018-10-16T03:09:25.253Z,91.74
2018-10-16T03:11:53.864Z,91.80
2018-10-16T03:14:22.485Z,91.06
2018-10-16T03:16:51.253Z,90.90
2018-10-16T03:19:19.806Z,91.54
2018-10-16T03:21:48.361Z,92.51
2018-10-16T03:24:16.941Z,93.70
2018-10-16T03:26:45.537Z,93.77
2018-10-16T03:29:14.360Z,94.05
2018-10-16T03:31:42.870Z,94.09
2018-10-16T03:34:11.440Z,92.71
2018-10-16T03:36:40.769Z,92.74
2018-10-16T03:39:11.282Z,92.16
2018-10-16T03:41:40.017Z,92.20
2018-10-16T03:44:11.897Z,91.09
2018-10-16T03:46:40.559Z,91.71
2018-10-16T03:49:10.420Z,92.06
2018-10-16T03:51:39.744Z,91.80
2018-10-16T03:54:08.921Z,92.24
2018-10-16T03:56:37.491Z,92.96
2018-10-16T03:59:06.493Z,92.34
2018-10-16T04:01:35.090Z,92.29
2018-10-16T04:04:03.732Z,92.86
2018-10-16T04:06:32.781Z,92.54
2018-10-16T04:09:01.253Z,92.86
2018-10-16T04:11:29.888Z,92.21
2018-10-16T04:13:58.670Z,91.49
2018-10-16T04:16:27.229Z,92.41
2018-10-16T04:18:55.792Z,92.64
2018-10-16T04:21:29.138Z,92.99
2018-10-16T04:23:57.964Z,92.99
2018-10-16T04:26:26.585Z,91.84
2018-10-16T04:28:55.334Z,92.38
2018-10-16T04:31:23.969Z,92.68
2018-10-16T04:33:52.564Z,93.25
2018-10-16T04:36:21.330Z,93.18
2018-10-16T04:38:49.872Z,92.84
2018-10-16T04:41:18.441Z,93.05
2018-10-16T04:43:48.137Z,92.80
2018-10-16T04:46:16.772Z,93.24
2018-10-16T04:48:45.362Z,93.06
2018-10-16T04:51:14.013Z,92.83
2018-10-16T04:53:42.545Z,91.94
2018-10-16T04:56:11.201Z,92.32
2018-10-16T04:58:40.105Z,93.15
2018-10-16T05:01:08.889Z,94.31
2018-10-16T05:03:37.750Z,94.28
2018-10-16T05:06:06.654Z,93.15
2018-10-16T05:08:35.229Z,93.11
2018-10-16T05:11:03.897Z,93.39
2018-10-16T05:13:32.500Z,92.71
2018-10-16T05:16:01.160Z,92.62
2018-10-16T05:18:29.773Z,92.85
2018-10-16T05:20:58.629Z,92.75
2018-10-16T05:23:27.176Z,93.11
2018-10-16T05:25:55.848Z,93.45
2018-10-16T05:28:24.503Z,93.05
2018-10-16T05:30:53.059Z,93.72
2018-10-16T05:33:21.640Z,93.85
2018-10-16T05:35:50.388Z,94.14
2018-10-16T05:38:18.948Z,93.76
2018-10-16T05:40:47.599Z,93.51
2018-10-16T05:43:16.571Z,93.85
2018-10-16T05:45:46.486Z,92.59
2018-10-16T05:48:15.133Z,93.69
2018-10-16T05:50:43.932Z,94.27
2018-10-16T05:53:12.441Z,93.73
2018-10-16T05:55:40.998Z,94.04
2018-10-16T05:58:10.209Z,94.95
2018-10-16T06:00:44.632Z,94.12
2018-10-16T06:03:13.277Z,94.41
2018-10-16T06:05:41.875Z,95.66
2018-10-16T06:08:10.532Z,94.68
2018-10-16T06:10:39.400Z,94.43
2018-10-16T06:13:07.888Z,94.31
2018-10-16T06:15:36.448Z,94.55
2018-10-16T06:18:05.436Z,94.25
2018-10-16T06:20:34.149Z,94.22
2018-10-16T06:23:02.820Z,94.26
2018-10-16T06:25:31.651Z,94.03
2018-10-16T06:28:04.899Z,93.65
2018-10-16T06:30:33.549Z,93.67
2018-10-16T06:33:02.203Z,93.65
2018-10-16T06:35:31.376Z,93.06
2018-10-16T06:37:59.981Z,92.82
2018-10-16T06:40:28.589Z,93.06
2018-10-16T06:42:57.765Z,93.16
2018-10-16T06:45:26.763Z,94.73
2018-10-16T06:47:55.511Z,95.69
2018-10-16T06:50:24.139Z,95.99
2018-10-16T06:52:52.948Z,95.57
2018-10-16T06:55:21.555Z,94.47
2018-10-16T06:57:50.133Z,94.85
2018-10-16T07:00:18.803Z,93.55
2018-10-16T07:02:47.294Z,93.06
2018-10-16T07:05:15.888Z,92.39
2018-10-16T07:07:44.477Z,92.18
2018-10-16T07:10:13.046Z,92.18
2018-10-16T07:12:41.761Z,91.72
2018-10-16T07:15:10.737Z,91.08
2018-10-16T07:17:39.393Z,91.09
2018-10-16T07:20:08.993Z,90.84
2018-10-16T07:22:37.741Z,90.73
2018-10-16T07:25:07.732Z,90.16
2018-10-16T07:27:36.336Z,90.18
2018-10-16T07:30:05.799Z,90.21
2018-10-16T07:32:34.454Z,90.19
2018-10-16T07:35:03.133Z,90.36
2018-10-16T07:37:31.780Z,90.99
2018-10-16T07:40:00.316Z,90.65
2018-10-16T07:42:29.069Z,90.78
2018-10-16T07:44:58.084Z,90.34
2018-10-16T07:47:26.656Z,90.48
2018-10-16T07:49:55.197Z,90.87
2018-10-16T07:52:23.883Z,91.92
2018-10-16T07:54:52.525Z,91.10
2018-10-16T07:57:21.308Z,90.77
2018-10-16T07:59:49.968Z,89.43
2018-10-16T08:02:18.621Z,89.36
2018-10-16T08:04:47.277Z,88.46
2018-10-16T08:07:16.101Z,88.90
2018-10-16T08:09:44.654Z,88.69
2018-10-16T08:12:13.332Z,88.24
2018-10-16T08:14:42.057Z,88.67
2018-10-16T08:17:10.755Z,87.83
2018-10-16T08:19:39.309Z,86.72
2018-10-16T08:22:07.898Z,86.32
2018-10-16T08:24:36.485Z,84.53
2018-10-16T08:27:05.129Z,84.95
2018-10-16T08:29:33.785Z,84.81
2018-10-16T08:32:02.405Z,83.76
2018-10-16T08:34:30.933Z,83.41
2018-10-16T08:36:59.911Z,83.83
2018-10-16T08:39:37.413Z,83.49
2018-10-16T08:42:15.326Z,81.75
2018-10-16T08:45:25.652Z,82.77
2018-10-16T08:48:05.510Z,82.26
2018-10-16T08:50:47.085Z,81.59
2018-10-16T08:53:15.717Z,82.01
2018-10-16T08:55:44.349Z,81.47
2018-10-16T08:58:12.943Z,82.61
2018-10-16T09:00:41.701Z,82.04
2018-10-16T09:03:10.256Z,81.34
2018-10-16T09:05:38.932Z,80.96
2018-10-16T09:08:07.512Z,79.91
2018-10-16T09:10:36.116Z,79.96
2018-10-16T09:13:04.765Z,79.17
2018-10-16T09:15:33.476Z,78.37
2018-10-16T09:18:02.065Z,77.51
2018-10-16T09:20:30.730Z,76.67
2018-10-16T09:22:59.453Z,76.03
2018-10-16T09:25:28.109Z,76.39
2018-10-16T09:27:56.829Z,75.30
2018-10-16T09:30:25.548Z,75.49
2018-10-16T09:32:54.136Z,74.16
2018-10-16T09:35:22.692Z,74.11
2018-10-16T09:37:51.563Z,72.81
2018-10-16T09:40:20.134Z,73.15
2018-10-16T09:42:48.694Z,72.01
2018-10-16T09:45:17.289Z,72.47
2018-10-16T09:47:45.841Z,71.98
2018-10-16T09:50:14.464Z,70.77
2018-10-16T09:52:43.128Z,70.91
2018-10-16T09:55:11.773Z,70.24
2018-10-16T09:57:40.365Z,69.58
2018-10-16T10:00:14.932Z,67.98
2018-10-16T10:02:43.549Z,68.82
2018-10-16T10:05:12.445Z,68.64
2018-10-16T10:07:41.378Z,67.73
2018-10-16T10:10:10.282Z,67.83
2018-10-16T10:12:39.289Z,67.68
2018-10-16T10:15:08.524Z,67.54
2018-10-16T10:17:37.657Z,67.73
2018-10-16T10:20:07.084Z,66.36
2018-10-16T10:22:35.825Z,66.55
2018-10-16T10:25:05.188Z,66.32
2018-10-16T10:27:33.805Z,65.77
2018-10-16T10:30:03.140Z,66.29
2018-10-16T10:32:32.214Z,66.03
2018-10-16T10:35:00.998Z,65.61
2018-10-16T10:37:29.875Z,65.32
2018-10-16T10:39:58.428Z,64.66
2018-10-16T10:42:27.021Z,64.47
2018-10-16T10:44:55.782Z,63.74
2018-10-16T10:47:24.420Z,63.49
2018-10-16T10:49:53.104Z,62.41
2018-10-16T10:52:21.839Z,62.22
2018-10-16T10:54:50.413Z,63.05
2018-10-16T10:57:19.092Z,63.31
2018-10-16T10:59:47.677Z,62.22
2018-10-16T11:02:16.305Z,62.22
2018-10-16T11:04:44.850Z,61.84
2018-10-16T11:07:13.468Z,60.41
2018-10-16T11:09:42.045Z,60.88
2018-10-16T11:12:10.641Z,61.12
2018-10-16T11:14:39.404Z,60.25
2018-10-16T11:17:08.036Z,60.23
2018-10-16T11:19:36.554Z,60.31
2018-10-16T11:22:05.285Z,59.91
2018-10-16T11:24:33.844Z,59.65
2018-10-16T11:27:02.433Z,59.90
2018-10-16T11:29:31.417Z,58.86
2018-10-16T11:32:00.049Z,58.08
2018-10-16T11:34:28.681Z,57.70
2018-10-16T11:36:57.409Z,55.52
2018-10-16T11:39:25.943Z,54.73
2018-10-16T11:41:56.264Z,53.31
2018-10-16T11:44:24.908Z,47.95
2018-10-16T11:46:53.724Z,46.67
2018-10-16T11:49:22.257Z,46.67
2018-10-16T11:51:50.844Z,46.79
2018-10-16T11:54:19.428Z,47.08
2018-10-16T11:56:48.606Z,47.76
2018-10-16T11:59:17.385Z,46.64
2018-10-16T12:01:46.101Z,45.23
2018-10-16T12:04:14.634Z,46.46
2018-10-16T12:06:43.311Z,45.47
2018-10-16T12:09:11.871Z,45.35
2018-10-16T12:11:40.813Z,44.68
2018-10-16T12:14:10.132Z,43.86
2018-10-16T12:17:14.552Z,44.28
2018-10-16T12:19:48.265Z,45.41
2018-10-16T12:22:16.900Z,45.12
2018-10-16T12:24:45.421Z,42.69
2018-10-16T12:27:14.115Z,42.36
2018-10-16T12:29:42.728Z,42.48
2018-10-16T12:32:11.469Z,42.80
2018-10-16T12:34:40.285Z,42.98
2018-10-16T12:37:08.946Z,43.24
2018-10-16T12:39:37.589Z,42.88
2018-10-16T12:42:06.521Z,42.08
2018-10-16T12:44:35.113Z,41.57
2018-10-16T12:47:03.811Z,42.73
2018-10-16T12:49:32.460Z,42.11
2018-10-16T12:52:01.168Z,42.31
2018-10-16T12:54:29.736Z,41.99
2018-10-16T12:56:58.708Z,41.22
2018-10-16T12:59:27.231Z,42.18
2018-10-16T13:01:55.853Z,41.25
2018-10-16T13:04:24.696Z,41.76
2018-10-16T13:06:53.336Z,42.77
2018-10-16T13:09:21.880Z,41.67
2018-10-16T13:11:50.597Z,41.54
2018-10-16T13:14:19.118Z,41.93
2018-10-16T13:16:47.713Z,41.25
2018-10-16T13:19:16.457Z,41.63
2018-10-16T13:21:45.102Z,41.23
2018-10-16T13:24:14.021Z,41.84
2018-10-16T13:26:42.748Z,42.15
2018-10-16T13:29:11.421Z,42.22
2018-10-16T13:31:40.021Z,41.77
2018-10-16T13:34:08.697Z,42.35
2018-10-16T13:36:37.266Z,42.01
2018-10-16T13:39:07.793Z,41.27
2018-10-16T13:41:36.395Z,41.59
2018-10-16T13:44:05.400Z,40.10
2018-10-16T13:46:34.494Z,40.57
2018-10-16T13:49:03.254Z,40.99
2018-10-16T13:51:31.920Z,40.12
2018-10-16T13:54:00.728Z,39.90
2018-10-16T13:56:29.252Z,40.25
2018-10-16T13:58:57.815Z,40.48
2018-10-16T14:01:26.585Z,39.75
2018-10-16T14:03:55.174Z,39.81
2018-10-16T14:06:23.786Z,40.47
2018-10-16T14:08:52.389Z,40.68
2018-10-16T14:11:20.972Z,39.77
2018-10-16T14:13:49.521Z,39.87
2018-10-16T14:16:18.318Z,40.25
2018-10-16T14:18:47.133Z,40.09
2018-10-16T14:21:15.737Z,40.86
2018-10-16T14:23:44.365Z,39.98
2018-10-16T14:26:12.985Z,40.82
2018-10-16T14:28:41.425Z,41.21
2018-10-16T14:31:10.064Z,40.08
2018-10-16T14:33:38.830Z,40.68
2018-10-16T14:36:07.648Z,40.66
2018-10-16T14:38:36.341Z,40.54
2018-10-16T14:41:05.029Z,40.02
2018-10-16T14:43:33.613Z,40.93
2018-10-16T14:46:03.043Z,40.51
2018-10-16T14:48:31.622Z,40.33
2018-10-16T14:51:00.345Z,40.69
2018-10-16T14:53:29.308Z,40.51
2018-10-16T14:55:57.929Z,40.76
2018-10-16T14:58:26.695Z,41.59
2018-10-16T15:00:55.694Z,40.98
2018-10-16T15:03:24.275Z,42.13
2018-10-16T15:05:52.920Z,42.26
2018-10-16T15:08:21.659Z,41.58
2018-10-16T15:10:50.313Z,41.24
2018-10-16T15:13:18.960Z,42.26
2018-10-16T15:15:47.872Z,41.32
2018-10-16T15:18:16.524Z,42.54
2018-10-16T15:20:45.096Z,42.40
2018-10-16T15:23:13.677Z,42.35
2018-10-16T15:25:42.236Z,42.28
2018-10-16T15:28:10.861Z,42.23
2018-10-16T15:30:39.741Z,43.03
2018-10-16T15:33:08.385Z,43.01
2018-10-16T15:35:37.104Z,43.62
2018-10-16T15:38:05.849Z,43.91
2018-10-16T15:40:34.400Z,43.72
2018-10-16T15:43:03.528Z,44.73
2018-10-16T15:45:32.201Z,44.58
2018-10-16T15:48:00.852Z,45.62
2018-10-16T15:50:29.909Z,45.95
2018-10-16T15:52:58.860Z,46.08
2018-10-16T15:55:27.512Z,46.61
2018-10-16T15:57:56.095Z,47.31
2018-10-16T16:00:24.845Z,48.20
2018-10-16T16:02:53.353Z,49.30
2018-10-16T16:05:22.019Z,50.42
2018-10-16T16:07:50.953Z,50.99
2018-10-16T16:10:19.572Z,51.78
2018-10-16T16:12:48.180Z,52.83
2018-10-16T16:15:17.125Z,53.34
2018-10-16T16:17:45.833Z,54.93
2018-10-16T16:20:15.367Z,55.33
2018-10-16T16:22:44.445Z,56.40
2018-10-16T16:25:14.973Z,57.59
2018-10-16T16:27:43.661Z,58.78
2018-10-16T16:30:14.929Z,59.22
2018-10-16T16:32:43.569Z,60.35
2018-10-16T16:35:12.217Z,60.24
2018-10-16T16:37:40.794Z,60.13
2018-10-16T16:40:11.514Z,60.42
2018-10-16T16:42:40.181Z,61.18
2018-10-16T16:45:09.793Z,61.02
2018-10-16T16:47:38.828Z,62.41
2018-10-16T16:50:08.944Z,62.04
2018-10-16T16:52:37.869Z,62.28
2018-10-16T16:55:08.424Z,63.36
2018-10-16T16:57:37.536Z,63.10
2018-10-16T17:00:06.432Z,63.44
2018-10-16T17:02:35.069Z,64.32
2018-10-16T17:05:03.708Z,64.14
2018-10-16T17:07:32.340Z,64.63
2018-10-16T17:10:00.998Z,65.24
2018-10-16T17:12:29.680Z,65.87
2018-10-16T17:14:58.260Z,65.61
2018-10-16T17:17:26.915Z,66.48
2018-10-16T17:19:55.497Z,65.97
2018-10-16T17:22:24.077Z,66.65
2018-10-16T17:24:52.727Z,66.38
2018-10-16T17:27:21.146Z,66.25
2018-10-16T17:29:49.791Z,67.60
2018-10-16T17:32:18.409Z,67.02
2018-10-16T17:34:47.113Z,67.56
2018-10-16T17:37:15.885Z,68.98
2018-10-16T17:39:44.394Z,67.87
2018-10-16T17:42:12.937Z,68.43
2018-10-16T17:44:41.609Z,68.82
2018-10-16T17:47:10.201Z,69.28
2018-10-16T17:49:38.821Z,69.60
2018-10-16T17:52:07.756Z,68.40
2018-10-16T17:54:36.312Z,69.32
2018-10-16T17:57:05.201Z,69.33
2018-10-16T17:59:33.797Z,69.38
2018-10-16T18:02:02.568Z,69.37
2018-10-16T18:04:31.272Z,70.36
2018-10-16T18:07:00.257Z,70.42
2018-10-16T18:09:28.902Z,70.26
2018-10-16T18:11:57.730Z,71.19
2018-10-16T18:14:26.555Z,71.64
2018-10-16T18:16:55.101Z,72.30
2018-10-16T18:19:23.705Z,72.98
2018-10-16T18:21:52.647Z,73.47
2018-10-16T18:24:21.220Z,73.27
2018-10-16T18:26:49.785Z,74.12
2018-10-16T18:29:19.077Z,74.45
2018-10-16T18:31:47.680Z,75.36
2018-10-16T18:34:16.304Z,74.57
2018-10-16T18:36:45.040Z,75.10
2018-10-16T18:39:14.040Z,75.22
2018-10-16T18:41:42.742Z,76.00
2018-10-16T18:44:11.338Z,76.24
2018-10-16T18:46:40.538Z,77.24
2018-10-16T18:49:09.414Z,76.93
2018-10-16T18:51:38.735Z,77.13
2018-10-16T18:54:07.619Z,76.91
2018-10-16T18:56:36.389Z,77.67
2018-10-16T18:59:05.209Z,78.71
2018-10-16T19:01:33.904Z,78.52
2018-10-16T19:04:02.564Z,78.88
2018-10-16T19:06:31.384Z,79.20
2018-10-16T19:09:00.441Z,79.67
2018-10-16T19:11:29.620Z,79.21
2018-10-16T19:13:58.388Z,79.80
2018-10-16T19:16:27.419Z,79.80
2018-10-16T19:18:56.025Z,80.34
2018-10-16T19:21:24.788Z,80.67
2018-10-16T19:23:53.346Z,80.52
2018-10-16T19:26:21.977Z,80.35
2018-10-16T19:28:50.888Z,80.61
2018-10-16T19:31:19.472Z,80.64
2018-10-16T19:33:48.124Z,81.16
2018-10-16T19:36:17.034Z,81.19
2018-10-16T19:38:45.664Z,80.83
2018-10-16T19:41:14.300Z,81.00
2018-10-16T19:43:42.971Z,82.62
2018-10-16T19:46:12.183Z,81.79
2018-10-16T19:48:40.981Z,81.97
2018-10-16T19:51:09.964Z,82.67
2018-10-16T19:53:38.804Z,82.37
2018-10-16T19:56:07.497Z,82.51
2018-10-16T19:58:36.205Z,82.67
2018-10-16T20:01:05.108Z,83.15
2018-10-16T20:03:33.636Z,84.10
2018-10-16T20:06:02.512Z,83.97
2018-10-16T20:08:31.068Z,84.04
2018-10-16T20:10:59.709Z,83.50
2018-10-16T20:13:28.717Z,84.14
2018-10-16T20:15:57.422Z,83.59
2018-10-16T20:18:26.055Z,83.92
2018-10-16T20:20:54.788Z,84.46
2018-10-16T20:23:23.335Z,83.39
2018-10-16T20:25:51.887Z,84.70
2018-10-16T20:28:20.584Z,84.73
2018-10-16T20:30:49.125Z,84.86
2018-10-16T20:33:17.724Z,85.23
2018-10-16T20:35:46.689Z,86.55
2018-10-16T20:38:15.216Z,84.62
2018-10-16T20:40:43.790Z,85.20
2018-10-16T20:43:12.418Z,85.27
2018-10-16T20:45:41.004Z,86.07
2018-10-16T20:48:09.620Z,87.53
2018-10-16T20:50:38.192Z,86.46
2018-10-16T20:53:06.868Z,86.42
2018-10-16T20:55:35.425Z,85.32
2018-10-16T20:58:04.128Z,85.75
2018-10-16T21:00:32.835Z,84.83
2018-10-16T21:03:01.400Z,84.93
2018-10-16T21:05:30.211Z,85.74
2018-10-16T21:07:58.708Z,85.87
2018-10-16T21:10:27.276Z,85.52
2018-10-16T21:12:56.178Z,86.07
2018-10-16T21:15:24.716Z,85.71
2018-10-16T21:17:53.386Z,85.67
2018-10-16T21:20:22.040Z,85.87
2018-10-16T21:22:50.559Z,85.61
2018-10-16T21:25:19.180Z,87.93
2018-10-16T21:27:47.769Z,88.66
2018-10-16T21:30:16.445Z,89.52
2018-10-16T21:32:45.005Z,88.02
2018-10-16T21:35:13.661Z,89.47
2018-10-16T21:37:42.339Z,87.38
2018-10-16T21:40:10.969Z,88.11
2018-10-16T21:42:39.572Z,88.85
2018-10-16T21:45:08.241Z,88.50
2018-10-16T21:47:36.817Z,88.38
2018-10-16T21:50:05.805Z,88.58
2018-10-16T21:52:34.448Z,88.75
2018-10-16T21:55:03.139Z,88.25
2018-10-16T21:57:31.796Z,87.64
2018-10-16T22:00:00.492Z,88.51
2018-10-16T22:02:34.329Z,89.09
2018-10-16T22:05:02.864Z,88.62
2018-10-16T22:07:31.479Z,88.24
2018-10-16T22:10:00.201Z,87.47
2018-10-16T22:12:28.726Z,88.03
2018-10-16T22:14:57.276Z,88.46
2018-10-16T22:17:25.988Z,89.26
2018-10-16T22:19:54.528Z,89.56
2018-10-16T22:22:23.094Z,89.19
2018-10-16T22:24:51.714Z,89.11
2018-10-16T22:27:20.244Z,88.61
2018-10-16T22:29:48.757Z,89.00
2018-10-16T22:32:17.353Z,88.81
2018-10-16T22:34:45.934Z,88.57
2018-10-16T22:37:14.696Z,89.56
2018-10-16T22:39:43.560Z,89.21
2018-10-16T22:42:12.225Z,88.69
2018-10-16T22:44:40.790Z,87.92
2018-10-16T22:47:09.679Z,89.02
2018-10-16T22:49:38.230Z,89.03
2018-10-16T22:52:06.856Z,88.15
2018-10-16T22:54:35.553Z,88.58
2018-10-16T22:57:04.116Z,88.67
2018-10-16T22:59:32.700Z,89.47
2018-10-16T23:02:01.305Z,88.84
2018-10-16T23:04:29.901Z,89.01
2018-10-16T23:06:58.598Z,89.05
2018-10-16T23:09:27.245Z,88.45
2018-10-16T23:11:55.761Z,89.11
2018-10-16T23:14:24.321Z,89.32
2018-10-16T23:16:53.094Z,89.69
2018-10-16T23:19:21.672Z,89.48
2018-10-16T23:21:50.225Z,89.38
2018-10-16T23:24:18.901Z,88.65
2018-10-16T23:26:47.432Z,88.61
2018-10-16T23:29:16.151Z,88.43
2018-10-16T23:31:44.904Z,89.58
2018-10-16T23:34:13.546Z,89.65
2018-10-16T23:36:42.188Z,90.31
2018-10-16T23:39:13.823Z,88.70
2018-10-16T23:41:43.173Z,89.81
2018-10-16T23:44:12.356Z,90.95
2018-10-16T23:46:40.996Z,88.83
2018-10-16T23:49:10.353Z,88.75
2018-10-16T23:51:38.874Z,89.53
2018-10-16T23:54:07.618Z,90.85
2018-10-16T23:56:36.184Z,89.55
2018-10-16T23:59:04.923Z,90.29
